sensor_id;sensor_type;location;lat;lon;timestamp;temperature;humidity
12013;DHT22;6065;48.138;16.402;2023-05-10T00:01:01;13.20;99.80
12013;DHT22;6065;48.138;16.402;2023-05-10T00:03:28;13.20;99.90
12013;DHT22;6065;48.138;16.402;2023-05-10T00:05:54;13.20;99.90
12013;DHT22;6065;48.138;16.402;2023-05-10T00:08:21;13.20;99.90
12013;DHT22;6065;48.138;16.402;2023-05-10T00:10:48;13.20;99.90
12013;DHT22;6065;48.138;16.402;2023-05-10T00:13:16;13.20;99.90
12013;DHT22;6065;48.138;16.402;2023-05-10T00:15:43;13.20;99.90
12013;DHT22;6065;48.138;16.402;2023-05-10T00:18:10;13.20;99.90
12013;DHT22;6065;48.138;16.402;2023-05-10T00:20:37;13.20;99.90
12013;DHT22;6065;48.138;16.402;2023-05-10T00:23:03;13.20;99.90
12013;DHT22;6065;48.138;16.402;2023-05-10T00:25:30;13.20;99.90
12013;DHT22;6065;48.138;16.402;2023-05-10T00:27:57;13.10;99.90
12013;DHT22;6065;48.138;16.402;2023-05-10T00:30:25;13.10;99.90
12013;DHT22;6065;48.138;16.402;2023-05-10T00:32:52;13.00;99.90
12013;DHT22;6065;48.138;16.402;2023-05-10T00:35:18;13.00;99.90
12013;DHT22;6065;48.138;16.402;2023-05-10T00:37:46;13.00;99.90
12013;DHT22;6065;48.138;16.402;2023-05-10T00:40:13;13.00;99.90
12013;DHT22;6065;48.138;16.402;2023-05-10T00:42:40;13.00;99.90
12013;DHT22;6065;48.138;16.402;2023-05-10T00:45:07;13.00;99.90
12013;DHT22;6065;48.138;16.402;2023-05-10T00:47:35;13.00;99.90
12013;DHT22;6065;48.138;16.402;2023-05-10T00:50:02;12.90;99.90
12013;DHT22;6065;48.138;16.402;2023-05-10T00:52:30;12.90;99.90
12013;DHT22;6065;48.138;16.402;2023-05-10T00:54:56;12.80;99.90
12013;DHT22;6065;48.138;16.402;2023-05-10T00:57:23;12.80;99.90
12013;DHT22;6065;48.138;16.402;2023-05-10T00:59:50;12.90;99.90
12013;DHT22;6065;48.138;16.402;2023-05-10T01:02:17;12.90;99.90
12013;DHT22;6065;48.138;16.402;2023-05-10T01:04:45;12.80;99.90
12013;DHT22;6065;48.138;16.402;2023-05-10T01:07:12;12.80;99.90
12013;DHT22;6065;48.138;16.402;2023-05-10T01:09:39;12.70;99.90
12013;DHT22;6065;48.138;16.402;2023-05-10T01:12:06;12.80;99.90
12013;DHT22;6065;48.138;16.402;2023-05-10T01:14:33;12.80;99.90
12013;DHT22;6065;48.138;16.402;2023-05-10T01:17:01;12.70;99.90
12013;DHT22;6065;48.138;16.402;2023-05-10T01:19:28;12.60;99.90
12013;DHT22;6065;48.138;16.402;2023-05-10T01:21:59;12.50;99.90
12013;DHT22;6065;48.138;16.402;2023-05-10T01:27:17;12.50;99.90
12013;DHT22;6065;48.138;16.402;2023-05-10T01:30:00;12.50;99.90
12013;DHT22;6065;48.138;16.402;2023-05-10T01:32:31;12.40;99.90
12013;DHT22;6065;48.138;16.402;2023-05-10T01:35:02;12.40;99.90
12013;DHT22;6065;48.138;16.402;2023-05-10T01:37:41;12.40;99.90
12013;DHT22;6065;48.138;16.402;2023-05-10T01:40:10;12.40;99.90
12013;DHT22;6065;48.138;16.402;2023-05-10T01:42:40;12.30;99.90
12013;DHT22;6065;48.138;16.402;2023-05-10T01:45:11;12.40;99.90
12013;DHT22;6065;48.138;16.402;2023-05-10T01:47:43;12.40;99.90
12013;DHT22;6065;48.138;16.402;2023-05-10T01:50:10;12.40;99.90
12013;DHT22;6065;48.138;16.402;2023-05-10T01:52:42;12.40;99.90
12013;DHT22;6065;48.138;16.402;2023-05-10T01:55:09;12.40;99.90
12013;DHT22;6065;48.138;16.402;2023-05-10T01:57:37;12.40;99.90
12013;DHT22;6065;48.138;16.402;2023-05-10T02:00:06;12.40;99.90
12013;DHT22;6065;48.138;16.402;2023-05-10T02:02:36;12.40;99.90
12013;DHT22;6065;48.138;16.402;2023-05-10T02:05:05;12.30;99.90
12013;DHT22;6065;48.138;16.402;2023-05-10T02:07:33;12.30;99.90
12013;DHT22;6065;48.138;16.402;2023-05-10T02:10:00;12.30;99.90
12013;DHT22;6065;48.138;16.402;2023-05-10T02:12:28;12.30;99.90
12013;DHT22;6065;48.138;16.402;2023-05-10T02:14:55;12.20;99.90
12013;DHT22;6065;48.138;16.402;2023-05-10T02:17:23;12.10;99.90
12013;DHT22;6065;48.138;16.402;2023-05-10T02:19:50;12.20;99.90
12013;DHT22;6065;48.138;16.402;2023-05-10T02:22:19;12.10;99.90
12013;DHT22;6065;48.138;16.402;2023-05-10T02:24:46;12.10;99.90
12013;DHT22;6065;48.138;16.402;2023-05-10T02:27:13;12.10;99.90
12013;DHT22;6065;48.138;16.402;2023-05-10T02:29:40;12.10;99.90
12013;DHT22;6065;48.138;16.402;2023-05-10T02:32:07;12.00;99.90
12013;DHT22;6065;48.138;16.402;2023-05-10T02:34:35;12.00;99.90
12013;DHT22;6065;48.138;16.402;2023-05-10T02:37:02;12.00;99.90
12013;DHT22;6065;48.138;16.402;2023-05-10T02:39:31;11.90;99.90
12013;DHT22;6065;48.138;16.402;2023-05-10T02:41:58;11.90;99.90
12013;DHT22;6065;48.138;16.402;2023-05-10T02:44:25;11.80;99.90
12013;DHT22;6065;48.138;16.402;2023-05-10T02:46:53;11.80;99.90
12013;DHT22;6065;48.138;16.402;2023-05-10T02:49:21;11.80;99.90
12013;DHT22;6065;48.138;16.402;2023-05-10T02:51:49;11.80;99.90
12013;DHT22;6065;48.138;16.402;2023-05-10T02:54:18;11.70;99.90
12013;DHT22;6065;48.138;16.402;2023-05-10T02:56:49;11.80;99.90
12013;DHT22;6065;48.138;16.402;2023-05-10T02:59:17;11.80;99.90
12013;DHT22;6065;48.138;16.402;2023-05-10T03:01:43;11.80;99.90
12013;DHT22;6065;48.138;16.402;2023-05-10T03:04:10;11.80;99.90
12013;DHT22;6065;48.138;16.402;2023-05-10T03:06:37;11.70;99.90
12013;DHT22;6065;48.138;16.402;2023-05-10T03:09:04;11.70;99.90
12013;DHT22;6065;48.138;16.402;2023-05-10T03:11:38;11.70;99.90
12013;DHT22;6065;48.138;16.402;2023-05-10T03:14:10;11.60;99.90
12013;DHT22;6065;48.138;16.402;2023-05-10T03:16:41;11.60;99.90
12013;DHT22;6065;48.138;16.402;2023-05-10T03:19:12;11.60;99.90
12013;DHT22;6065;48.138;16.402;2023-05-10T03:21:43;11.50;99.90
12013;DHT22;6065;48.138;16.402;2023-05-10T03:24:12;11.50;99.90
12013;DHT22;6065;48.138;16.402;2023-05-10T03:26:40;11.50;99.90
12013;DHT22;6065;48.138;16.402;2023-05-10T03:29:11;11.50;99.90
12013;DHT22;6065;48.138;16.402;2023-05-10T03:31:39;11.60;99.90
12013;DHT22;6065;48.138;16.402;2023-05-10T03:34:06;11.60;99.90
12013;DHT22;6065;48.138;16.402;2023-05-10T03:36:33;11.60;99.90
12013;DHT22;6065;48.138;16.402;2023-05-10T03:39:00;11.60;99.90
12013;DHT22;6065;48.138;16.402;2023-05-10T03:41:27;11.60;99.90
12013;DHT22;6065;48.138;16.402;2023-05-10T03:43:54;11.70;99.90
12013;DHT22;6065;48.138;16.402;2023-05-10T03:46:22;11.70;99.90
12013;DHT22;6065;48.138;16.402;2023-05-10T03:48:49;11.70;99.90
12013;DHT22;6065;48.138;16.402;2023-05-10T03:51:15;11.60;99.90
12013;DHT22;6065;48.138;16.402;2023-05-10T03:53:42;11.60;99.90
12013;DHT22;6065;48.138;16.402;2023-05-10T03:56:09;11.60;99.90
12013;DHT22;6065;48.138;16.402;2023-05-10T03:58:36;11.60;99.90
12013;DHT22;6065;48.138;16.402;2023-05-10T04:01:03;11.60;99.90
12013;DHT22;6065;48.138;16.402;2023-05-10T04:03:31;11.60;99.90
12013;DHT22;6065;48.138;16.402;2023-05-10T04:05:58;11.60;99.90
12013;DHT22;6065;48.138;16.402;2023-05-10T04:08:25;11.60;99.90
12013;DHT22;6065;48.138;16.402;2023-05-10T04:10:53;11.60;99.90
12013;DHT22;6065;48.138;16.402;2023-05-10T04:13:20;11.50;99.90
12013;DHT22;6065;48.138;16.402;2023-05-10T04:15:47;11.50;99.90
12013;DHT22;6065;48.138;16.402;2023-05-10T04:18:14;11.50;99.90
12013;DHT22;6065;48.138;16.402;2023-05-10T04:20:43;11.50;99.90
12013;DHT22;6065;48.138;16.402;2023-05-10T04:23:10;11.50;99.90
12013;DHT22;6065;48.138;16.402;2023-05-10T04:25:39;11.40;99.90
12013;DHT22;6065;48.138;16.402;2023-05-10T04:28:06;11.40;99.90
12013;DHT22;6065;48.138;16.402;2023-05-10T04:30:32;11.40;99.90
12013;DHT22;6065;48.138;16.402;2023-05-10T04:33:00;11.40;99.90
12013;DHT22;6065;48.138;16.402;2023-05-10T04:35:27;11.30;99.90
12013;DHT22;6065;48.138;16.402;2023-05-10T04:37:55;11.30;99.90
12013;DHT22;6065;48.138;16.402;2023-05-10T04:40:22;11.40;99.90
12013;DHT22;6065;48.138;16.402;2023-05-10T04:42:49;11.40;99.90
12013;DHT22;6065;48.138;16.402;2023-05-10T04:45:16;11.40;99.90
12013;DHT22;6065;48.138;16.402;2023-05-10T04:47:42;11.30;99.90
12013;DHT22;6065;48.138;16.402;2023-05-10T04:50:09;11.40;99.90
12013;DHT22;6065;48.138;16.402;2023-05-10T04:52:36;11.30;99.90
12013;DHT22;6065;48.138;16.402;2023-05-10T04:55:04;11.30;99.90
12013;DHT22;6065;48.138;16.402;2023-05-10T04:57:32;11.40;99.90
12013;DHT22;6065;48.138;16.402;2023-05-10T04:59:59;11.40;99.90
12013;DHT22;6065;48.138;16.402;2023-05-10T05:02:26;11.50;99.90
12013;DHT22;6065;48.138;16.402;2023-05-10T05:04:53;11.50;99.90
12013;DHT22;6065;48.138;16.402;2023-05-10T05:07:19;11.60;99.90
12013;DHT22;6065;48.138;16.402;2023-05-10T05:09:46;11.50;99.90
12013;DHT22;6065;48.138;16.402;2023-05-10T05:12:14;11.60;99.90
12013;DHT22;6065;48.138;16.402;2023-05-10T05:14:41;11.60;99.90
12013;DHT22;6065;48.138;16.402;2023-05-10T05:17:08;11.70;99.90
12013;DHT22;6065;48.138;16.402;2023-05-10T05:19:35;11.70;99.90
12013;DHT22;6065;48.138;16.402;2023-05-10T05:22:02;11.80;99.90
12013;DHT22;6065;48.138;16.402;2023-05-10T05:24:42;11.90;99.90
12013;DHT22;6065;48.138;16.402;2023-05-10T05:42:37;12.50;99.90
12013;DHT22;6065;48.138;16.402;2023-05-10T05:45:04;12.60;99.90
12013;DHT22;6065;48.138;16.402;2023-05-10T05:47:31;12.70;99.90
12013;DHT22;6065;48.138;16.402;2023-05-10T05:49:57;12.80;99.90
12013;DHT22;6065;48.138;16.402;2023-05-10T05:52:24;12.90;99.90
12013;DHT22;6065;48.138;16.402;2023-05-10T05:54:51;13.00;99.90
12013;DHT22;6065;48.138;16.402;2023-05-10T05:57:18;13.10;99.90
12013;DHT22;6065;48.138;16.402;2023-05-10T05:59:46;13.20;99.90
12013;DHT22;6065;48.138;16.402;2023-05-10T06:02:13;13.20;99.90
12013;DHT22;6065;48.138;16.402;2023-05-10T06:04:39;13.30;99.90
12013;DHT22;6065;48.138;16.402;2023-05-10T06:07:06;13.40;99.90
12013;DHT22;6065;48.138;16.402;2023-05-10T06:09:33;13.50;99.90
12013;DHT22;6065;48.138;16.402;2023-05-10T06:11:59;13.70;99.90
12013;DHT22;6065;48.138;16.402;2023-05-10T06:14:26;13.80;99.90
12013;DHT22;6065;48.138;16.402;2023-05-10T06:16:55;13.80;99.90
12013;DHT22;6065;48.138;16.402;2023-05-10T06:19:21;13.90;99.90
12013;DHT22;6065;48.138;16.402;2023-05-10T06:21:48;13.90;99.90
12013;DHT22;6065;48.138;16.402;2023-05-10T06:24:15;14.00;99.90
12013;DHT22;6065;48.138;16.402;2023-05-10T06:26:42;14.10;99.90
12013;DHT22;6065;48.138;16.402;2023-05-10T06:44:48;14.60;99.90
12013;DHT22;6065;48.138;16.402;2023-05-10T07:05:19;14.90;99.90
12013;DHT22;6065;48.138;16.402;2023-05-10T07:10:13;15.00;99.90
12013;DHT22;6065;48.138;16.402;2023-05-10T07:12:40;15.10;99.90
12013;DHT22;6065;48.138;16.402;2023-05-10T07:30:56;15.50;99.90
12013;DHT22;6065;48.138;16.402;2023-05-10T07:46:22;15.80;99.90
12013;DHT22;6065;48.138;16.402;2023-05-10T07:48:51;15.80;99.90
12013;DHT22;6065;48.138;16.402;2023-05-10T07:51:18;15.90;99.90
12013;DHT22;6065;48.138;16.402;2023-05-10T07:53:47;16.00;99.90
12013;DHT22;6065;48.138;16.402;2023-05-10T07:56:26;15.90;99.90
12013;DHT22;6065;48.138;16.402;2023-05-10T07:58:54;15.90;99.90
12013;DHT22;6065;48.138;16.402;2023-05-10T08:01:23;16.00;99.90
12013;DHT22;6065;48.138;16.402;2023-05-10T08:03:50;16.00;99.90
12013;DHT22;6065;48.138;16.402;2023-05-10T08:06:18;16.00;99.90
12013;DHT22;6065;48.138;16.402;2023-05-10T08:08:45;16.10;99.90
12013;DHT22;6065;48.138;16.402;2023-05-10T08:13:53;16.30;99.90
12013;DHT22;6065;48.138;16.402;2023-05-10T08:16:20;16.30;99.00
12013;DHT22;6065;48.138;16.402;2023-05-10T08:18:48;16.40;99.60
12013;DHT22;6065;48.138;16.402;2023-05-10T08:21:20;16.40;99.80
12013;DHT22;6065;48.138;16.402;2023-05-10T08:23:47;16.50;99.90
12013;DHT22;6065;48.138;16.402;2023-05-10T08:26:14;16.50;99.80
12013;DHT22;6065;48.138;16.402;2023-05-10T08:28:41;16.50;99.90
12013;DHT22;6065;48.138;16.402;2023-05-10T08:31:07;16.60;99.50
12013;DHT22;6065;48.138;16.402;2023-05-10T08:33:37;16.60;99.40
12013;DHT22;6065;48.138;16.402;2023-05-10T08:36:05;16.60;99.90
12013;DHT22;6065;48.138;16.402;2023-05-10T08:38:32;16.70;99.80
12013;DHT22;6065;48.138;16.402;2023-05-10T08:41:02;16.70;99.40
12013;DHT22;6065;48.138;16.402;2023-05-10T08:43:29;16.70;99.80
12013;DHT22;6065;48.138;16.402;2023-05-10T08:46:10;16.80;99.90
12013;DHT22;6065;48.138;16.402;2023-05-10T08:48:51;17.00;99.80
12013;DHT22;6065;48.138;16.402;2023-05-10T08:51:28;17.00;99.00
12013;DHT22;6065;48.138;16.402;2023-05-10T08:53:55;17.10;99.30
12013;DHT22;6065;48.138;16.402;2023-05-10T08:56:22;17.20;99.10
12013;DHT22;6065;48.138;16.402;2023-05-10T08:58:49;17.20;99.20
12013;DHT22;6065;48.138;16.402;2023-05-10T09:01:16;17.20;99.30
12013;DHT22;6065;48.138;16.402;2023-05-10T09:03:45;17.30;98.70
12013;DHT22;6065;48.138;16.402;2023-05-10T09:06:12;17.30;98.80
12013;DHT22;6065;48.138;16.402;2023-05-10T09:08:41;17.30;98.80
12013;DHT22;6065;48.138;16.402;2023-05-10T09:11:09;17.30;98.80
12013;DHT22;6065;48.138;16.402;2023-05-10T09:13:37;17.40;98.40
12013;DHT22;6065;48.138;16.402;2023-05-10T09:16:04;17.50;99.00
12013;DHT22;6065;48.138;16.402;2023-05-10T09:18:30;17.60;98.60
12013;DHT22;6065;48.138;16.402;2023-05-10T09:20:57;17.70;98.00
12013;DHT22;6065;48.138;16.402;2023-05-10T09:23:38;17.90;97.70
12013;DHT22;6065;48.138;16.402;2023-05-10T09:26:10;17.90;96.40
12013;DHT22;6065;48.138;16.402;2023-05-10T09:28:50;17.90;96.80
12013;DHT22;6065;48.138;16.402;2023-05-10T09:31:18;17.80;96.60
12013;DHT22;6065;48.138;16.402;2023-05-10T09:33:46;17.80;96.20
12013;DHT22;6065;48.138;16.402;2023-05-10T09:36:13;17.70;97.20
12013;DHT22;6065;48.138;16.402;2023-05-10T09:38:46;17.70;97.70
12013;DHT22;6065;48.138;16.402;2023-05-10T09:41:18;17.80;98.20
12013;DHT22;6065;48.138;16.402;2023-05-10T09:43:46;17.90;97.60
12013;DHT22;6065;48.138;16.402;2023-05-10T09:46:13;17.90;97.50
12013;DHT22;6065;48.138;16.402;2023-05-10T09:48:41;17.90;97.30
12013;DHT22;6065;48.138;16.402;2023-05-10T09:51:09;17.90;96.70
12013;DHT22;6065;48.138;16.402;2023-05-10T09:53:36;17.90;97.30
12013;DHT22;6065;48.138;16.402;2023-05-10T09:56:03;18.00;97.00
12013;DHT22;6065;48.138;16.402;2023-05-10T10:01:15;18.10;97.20
12013;DHT22;6065;48.138;16.402;2023-05-10T10:03:42;18.20;96.40
12013;DHT22;6065;48.138;16.402;2023-05-10T10:06:09;18.30;96.50
12013;DHT22;6065;48.138;16.402;2023-05-10T10:08:36;18.40;96.50
12013;DHT22;6065;48.138;16.402;2023-05-10T10:11:03;18.40;96.70
12013;DHT22;6065;48.138;16.402;2023-05-10T10:13:30;18.40;96.50
12013;DHT22;6065;48.138;16.402;2023-05-10T10:15:57;18.40;96.60
12013;DHT22;6065;48.138;16.402;2023-05-10T10:18:25;18.50;96.50
12013;DHT22;6065;48.138;16.402;2023-05-10T10:20:54;18.60;96.00
12013;DHT22;6065;48.138;16.402;2023-05-10T10:23:21;18.70;96.30
12013;DHT22;6065;48.138;16.402;2023-05-10T10:25:48;18.70;96.30
12013;DHT22;6065;48.138;16.402;2023-05-10T10:28:21;18.80;96.10
12013;DHT22;6065;48.138;16.402;2023-05-10T10:30:49;18.80;96.30
12013;DHT22;6065;48.138;16.402;2023-05-10T10:33:33;18.90;95.60
12013;DHT22;6065;48.138;16.402;2023-05-10T10:36:03;18.90;94.90
12013;DHT22;6065;48.138;16.402;2023-05-10T10:41:26;19.10;95.40
12013;DHT22;6065;48.138;16.402;2023-05-10T10:46:35;19.20;95.30
12013;DHT22;6065;48.138;16.402;2023-05-10T10:49:23;19.20;95.50
12013;DHT22;6065;48.138;16.402;2023-05-10T10:54:35;19.10;94.70
12013;DHT22;6065;48.138;16.402;2023-05-10T10:57:10;19.00;95.10
12013;DHT22;6065;48.138;16.402;2023-05-10T10:59:41;19.00;95.50
12013;DHT22;6065;48.138;16.402;2023-05-10T11:02:08;19.20;96.30
12013;DHT22;6065;48.138;16.402;2023-05-10T11:04:42;19.30;95.40
12013;DHT22;6065;48.138;16.402;2023-05-10T11:07:17;19.40;95.40
12013;DHT22;6065;48.138;16.402;2023-05-10T11:09:45;19.40;95.10
12013;DHT22;6065;48.138;16.402;2023-05-10T11:12:13;19.50;95.20
12013;DHT22;6065;48.138;16.402;2023-05-10T11:14:40;19.60;95.00
12013;DHT22;6065;48.138;16.402;2023-05-10T11:17:22;19.70;94.60
12013;DHT22;6065;48.138;16.402;2023-05-10T11:20:07;19.80;95.10
12013;DHT22;6065;48.138;16.402;2023-05-10T11:22:48;19.80;95.40
12013;DHT22;6065;48.138;16.402;2023-05-10T11:25:16;19.80;94.40
12013;DHT22;6065;48.138;16.402;2023-05-10T11:27:42;19.90;95.00
12013;DHT22;6065;48.138;16.402;2023-05-10T11:30:09;19.90;94.70
12013;DHT22;6065;48.138;16.402;2023-05-10T11:32:37;19.80;94.10
12013;DHT22;6065;48.138;16.402;2023-05-10T11:37:53;19.90;94.20
12013;DHT22;6065;48.138;16.402;2023-05-10T11:40:21;19.90;94.60
12013;DHT22;6065;48.138;16.402;2023-05-10T11:42:55;19.80;94.50
12013;DHT22;6065;48.138;16.402;2023-05-10T11:45:23;19.90;94.10
12013;DHT22;6065;48.138;16.402;2023-05-10T11:47:50;19.90;93.80
12013;DHT22;6065;48.138;16.402;2023-05-10T11:50:24;20.00;93.80
12013;DHT22;6065;48.138;16.402;2023-05-10T12:05:58;20.50;94.00
12013;DHT22;6065;48.138;16.402;2023-05-10T12:08:26;20.50;92.90
12013;DHT22;6065;48.138;16.402;2023-05-10T12:11:03;20.50;93.30
12013;DHT22;6065;48.138;16.402;2023-05-10T12:13:30;20.40;92.70
12013;DHT22;6065;48.138;16.402;2023-05-10T12:15:57;20.40;93.00
12013;DHT22;6065;48.138;16.402;2023-05-10T12:18:24;20.50;92.80
12013;DHT22;6065;48.138;16.402;2023-05-10T12:20:51;20.40;91.50
12013;DHT22;6065;48.138;16.402;2023-05-10T12:23:20;20.40;92.20
12013;DHT22;6065;48.138;16.402;2023-05-10T12:25:46;20.40;92.00
12013;DHT22;6065;48.138;16.402;2023-05-10T12:28:13;20.50;92.50
12013;DHT22;6065;48.138;16.402;2023-05-10T12:30:40;20.50;92.40
12013;DHT22;6065;48.138;16.402;2023-05-10T12:33:07;20.50;93.30
12013;DHT22;6065;48.138;16.402;2023-05-10T12:35:42;20.70;92.10
12013;DHT22;6065;48.138;16.402;2023-05-10T12:38:24;20.70;91.70
12013;DHT22;6065;48.138;16.402;2023-05-10T12:40:51;20.70;90.90
12013;DHT22;6065;48.138;16.402;2023-05-10T12:43:18;20.80;92.30
12013;DHT22;6065;48.138;16.402;2023-05-10T12:45:44;20.90;91.70
12013;DHT22;6065;48.138;16.402;2023-05-10T12:48:15;20.90;91.80
12013;DHT22;6065;48.138;16.402;2023-05-10T12:50:42;20.80;91.90
12013;DHT22;6065;48.138;16.402;2023-05-10T12:53:08;20.80;91.80
12013;DHT22;6065;48.138;16.402;2023-05-10T12:55:37;20.90;92.00
12013;DHT22;6065;48.138;16.402;2023-05-10T12:58:04;20.80;92.00
12013;DHT22;6065;48.138;16.402;2023-05-10T13:00:31;20.70;91.50
12013;DHT22;6065;48.138;16.402;2023-05-10T13:02:58;20.60;92.20
12013;DHT22;6065;48.138;16.402;2023-05-10T13:05:25;20.60;91.60
12013;DHT22;6065;48.138;16.402;2023-05-10T13:07:52;20.60;92.00
12013;DHT22;6065;48.138;16.402;2023-05-10T13:10:18;20.60;92.30
12013;DHT22;6065;48.138;16.402;2023-05-10T13:12:47;20.50;92.20
12013;DHT22;6065;48.138;16.402;2023-05-10T13:15:14;20.50;92.40
12013;DHT22;6065;48.138;16.402;2023-05-10T13:17:41;20.50;92.20
12013;DHT22;6065;48.138;16.402;2023-05-10T13:20:09;20.50;92.20
12013;DHT22;6065;48.138;16.402;2023-05-10T13:22:36;20.50;92.20
12013;DHT22;6065;48.138;16.402;2023-05-10T13:25:02;20.50;91.60
12013;DHT22;6065;48.138;16.402;2023-05-10T13:27:29;20.40;91.60
12013;DHT22;6065;48.138;16.402;2023-05-10T13:29:57;20.30;91.70
12013;DHT22;6065;48.138;16.402;2023-05-10T13:32:24;20.30;92.50
12013;DHT22;6065;48.138;16.402;2023-05-10T13:34:51;20.50;92.80
12013;DHT22;6065;48.138;16.402;2023-05-10T13:37:18;20.70;92.30
12013;DHT22;6065;48.138;16.402;2023-05-10T13:39:44;20.70;92.40
12013;DHT22;6065;48.138;16.402;2023-05-10T13:42:11;20.80;92.30
12013;DHT22;6065;48.138;16.402;2023-05-10T13:44:39;20.80;92.40
12013;DHT22;6065;48.138;16.402;2023-05-10T13:47:07;20.80;92.20
12013;DHT22;6065;48.138;16.402;2023-05-10T13:49:34;20.90;91.90
12013;DHT22;6065;48.138;16.402;2023-05-10T13:52:01;20.80;91.50
12013;DHT22;6065;48.138;16.402;2023-05-10T13:54:32;20.80;91.30
12013;DHT22;6065;48.138;16.402;2023-05-10T13:56:58;20.70;91.20
12013;DHT22;6065;48.138;16.402;2023-05-10T13:59:26;20.80;91.10
12013;DHT22;6065;48.138;16.402;2023-05-10T14:01:52;20.70;91.20
12013;DHT22;6065;48.138;16.402;2023-05-10T14:04:21;20.70;91.10
12013;DHT22;6065;48.138;16.402;2023-05-10T14:06:47;20.80;91.50
12013;DHT22;6065;48.138;16.402;2023-05-10T14:09:14;20.90;90.70
12013;DHT22;6065;48.138;16.402;2023-05-10T14:11:41;20.90;90.50
12013;DHT22;6065;48.138;16.402;2023-05-10T14:14:08;20.90;90.60
12013;DHT22;6065;48.138;16.402;2023-05-10T14:16:36;20.90;90.70
12013;DHT22;6065;48.138;16.402;2023-05-10T14:19:02;20.90;90.80
12013;DHT22;6065;48.138;16.402;2023-05-10T14:21:30;21.00;90.60
12013;DHT22;6065;48.138;16.402;2023-05-10T14:23:57;21.00;90.20
12013;DHT22;6065;48.138;16.402;2023-05-10T14:26:24;21.00;88.90
12013;DHT22;6065;48.138;16.402;2023-05-10T14:28:51;20.80;89.80
12013;DHT22;6065;48.138;16.402;2023-05-10T14:31:18;20.80;90.30
12013;DHT22;6065;48.138;16.402;2023-05-10T14:33:46;20.70;90.20
12013;DHT22;6065;48.138;16.402;2023-05-10T14:36:13;20.70;89.80
12013;DHT22;6065;48.138;16.402;2023-05-10T14:38:41;20.70;89.90
12013;DHT22;6065;48.138;16.402;2023-05-10T14:41:08;20.80;89.90
12013;DHT22;6065;48.138;16.402;2023-05-10T14:43:39;20.70;87.20
12013;DHT22;6065;48.138;16.402;2023-05-10T14:46:06;20.60;88.10
12013;DHT22;6065;48.138;16.402;2023-05-10T14:48:33;20.60;88.30
12013;DHT22;6065;48.138;16.402;2023-05-10T14:51:00;20.60;89.30
12013;DHT22;6065;48.138;16.402;2023-05-10T14:53:27;20.70;90.00
12013;DHT22;6065;48.138;16.402;2023-05-10T14:55:55;20.70;89.70
12013;DHT22;6065;48.138;16.402;2023-05-10T14:58:22;20.70;90.10
12013;DHT22;6065;48.138;16.402;2023-05-10T15:00:49;20.70;88.90
12013;DHT22;6065;48.138;16.402;2023-05-10T15:03:16;20.70;89.00
12013;DHT22;6065;48.138;16.402;2023-05-10T15:05:43;20.70;89.60
12013;DHT22;6065;48.138;16.402;2023-05-10T15:08:10;20.60;89.30
12013;DHT22;6065;48.138;16.402;2023-05-10T15:10:37;20.50;90.20
12013;DHT22;6065;48.138;16.402;2023-05-10T15:13:07;20.50;89.30
12013;DHT22;6065;48.138;16.402;2023-05-10T15:15:34;20.40;90.10
12013;DHT22;6065;48.138;16.402;2023-05-10T15:18:01;20.20;89.30
12013;DHT22;6065;48.138;16.402;2023-05-10T15:20:32;20.20;88.70
12013;DHT22;6065;48.138;16.402;2023-05-10T15:22:58;20.20;88.90
12013;DHT22;6065;48.138;16.402;2023-05-10T15:25:25;20.20;88.70
12013;DHT22;6065;48.138;16.402;2023-05-10T15:27:53;20.20;88.60
12013;DHT22;6065;48.138;16.402;2023-05-10T15:30:21;20.30;88.80
12013;DHT22;6065;48.138;16.402;2023-05-10T15:32:48;20.40;89.80
12013;DHT22;6065;48.138;16.402;2023-05-10T15:35:14;20.40;90.40
12013;DHT22;6065;48.138;16.402;2023-05-10T15:37:42;20.30;90.20
12013;DHT22;6065;48.138;16.402;2023-05-10T15:42:41;20.10;90.50
12013;DHT22;6065;48.138;16.402;2023-05-10T15:45:11;20.00;90.90
12013;DHT22;6065;48.138;16.402;2023-05-10T15:47:39;20.00;91.10
12013;DHT22;6065;48.138;16.402;2023-05-10T15:50:06;19.90;90.90
12013;DHT22;6065;48.138;16.402;2023-05-10T15:52:42;19.80;90.90
12013;DHT22;6065;48.138;16.402;2023-05-10T15:55:15;19.80;90.70
12013;DHT22;6065;48.138;16.402;2023-05-10T15:57:42;19.80;91.10
12013;DHT22;6065;48.138;16.402;2023-05-10T16:00:09;19.80;90.70
12013;DHT22;6065;48.138;16.402;2023-05-10T16:02:48;19.80;90.70
12013;DHT22;6065;48.138;16.402;2023-05-10T16:05:19;19.70;90.50
12013;DHT22;6065;48.138;16.402;2023-05-10T16:07:46;19.70;90.70
12013;DHT22;6065;48.138;16.402;2023-05-10T16:10:13;19.70;90.80
12013;DHT22;6065;48.138;16.402;2023-05-10T16:12:40;19.60;91.20
12013;DHT22;6065;48.138;16.402;2023-05-10T16:15:07;19.50;91.40
12013;DHT22;6065;48.138;16.402;2023-05-10T16:17:34;19.50;91.70
12013;DHT22;6065;48.138;16.402;2023-05-10T16:20:12;19.50;91.90
12013;DHT22;6065;48.138;16.402;2023-05-10T16:22:38;19.40;92.00
12013;DHT22;6065;48.138;16.402;2023-05-10T16:25:05;19.40;91.90
12013;DHT22;6065;48.138;16.402;2023-05-10T16:27:32;19.40;91.80
12013;DHT22;6065;48.138;16.402;2023-05-10T16:29:59;19.40;92.10
12013;DHT22;6065;48.138;16.402;2023-05-10T16:32:35;19.30;91.50
12013;DHT22;6065;48.138;16.402;2023-05-10T16:35:02;19.30;91.40
12013;DHT22;6065;48.138;16.402;2023-05-10T16:37:33;19.30;91.60
12013;DHT22;6065;48.138;16.402;2023-05-10T16:40:00;19.20;91.80
12013;DHT22;6065;48.138;16.402;2023-05-10T16:42:27;19.20;91.20
12013;DHT22;6065;48.138;16.402;2023-05-10T16:45:03;19.20;91.20
12013;DHT22;6065;48.138;16.402;2023-05-10T16:47:37;19.10;91.20
12013;DHT22;6065;48.138;16.402;2023-05-10T16:50:06;19.00;91.40
12013;DHT22;6065;48.138;16.402;2023-05-10T16:52:48;19.00;91.50
12013;DHT22;6065;48.138;16.402;2023-05-10T16:55:21;19.00;91.60
12013;DHT22;6065;48.138;16.402;2023-05-10T16:57:48;18.90;91.70
12013;DHT22;6065;48.138;16.402;2023-05-10T17:00:21;18.90;91.70
12013;DHT22;6065;48.138;16.402;2023-05-10T17:02:48;18.90;91.80
12013;DHT22;6065;48.138;16.402;2023-05-10T17:05:14;18.80;92.00
12013;DHT22;6065;48.138;16.402;2023-05-10T17:07:45;18.80;92.00
12013;DHT22;6065;48.138;16.402;2023-05-10T17:10:12;18.80;92.00
12013;DHT22;6065;48.138;16.402;2023-05-10T17:12:38;18.80;92.20
12013;DHT22;6065;48.138;16.402;2023-05-10T17:15:07;18.80;92.20
12013;DHT22;6065;48.138;16.402;2023-05-10T17:17:34;18.80;92.30
12013;DHT22;6065;48.138;16.402;2023-05-10T17:20:01;18.70;92.40
12013;DHT22;6065;48.138;16.402;2023-05-10T17:22:32;18.70;92.40
12013;DHT22;6065;48.138;16.402;2023-05-10T17:25:00;18.70;92.50
12013;DHT22;6065;48.138;16.402;2023-05-10T17:27:32;18.70;92.50
12013;DHT22;6065;48.138;16.402;2023-05-10T17:30:00;18.70;92.60
12013;DHT22;6065;48.138;16.402;2023-05-10T17:32:27;18.60;92.40